createdAt,value
2018-12-02T00:00:49.650Z,2.10
2018-12-02T00:03:17.951Z,2.10
2018-12-02T00:08:17.751Z,2.10
2018-12-02T00:10:46.011Z,2.10
2018-12-02T00:13:14.724Z,2.10
2018-12-02T00:15:43.189Z,2.10
2018-12-02T00:18:12.978Z,2.10
2018-12-02T00:20:41.652Z,2.10
2018-12-02T00:23:10.733Z,2.10
2018-12-02T00:25:39.585Z,2.10
2018-12-02T00:28:09.464Z,2.10
2018-12-02T00:30:37.903Z,2.10
2018-12-02T00:33:07.410Z,2.10
2018-12-02T00:35:36.012Z,2.20
2018-12-02T00:38:05.805Z,2.10
2018-12-02T00:40:34.692Z,2.00
2018-12-02T00:43:03.147Z,2.00
2018-12-02T00:45:35.563Z,2.00
2018-12-02T00:48:06.190Z,2.00
2018-12-02T00:50:34.979Z,2.10
2018-12-02T00:53:03.467Z,2.00
2018-12-02T00:55:34.205Z,2.00
2018-12-02T00:58:02.941Z,2.00
2018-12-02T01:00:31.616Z,2.00
2018-12-02T01:02:59.912Z,2.10
2018-12-02T01:05:28.631Z,2.00
2018-12-02T01:07:57.058Z,2.10
2018-12-02T01:10:25.797Z,2.00
2018-12-02T01:12:55.614Z,2.00
2018-12-02T01:15:25.689Z,2.00
2018-12-02T01:17:53.952Z,2.00
2018-12-02T01:20:23.316Z,2.00
2018-12-02T01:22:51.717Z,2.10
2018-12-02T01:25:20.402Z,2.10
2018-12-02T01:27:49.029Z,1.90
2018-12-02T01:30:22.828Z,2.00
2018-12-02T01:32:53.358Z,2.00
2018-12-02T01:35:22.902Z,2.00
2018-12-02T01:37:51.792Z,2.00
2018-12-02T01:40:20.992Z,1.90
2018-12-02T01:42:50.464Z,2.00
2018-12-02T01:45:23.239Z,2.00
2018-12-02T01:47:52.167Z,2.00
2018-12-02T01:50:22.025Z,1.90
2018-12-02T01:52:51.137Z,1.90
2018-12-02T01:55:19.532Z,1.90
2018-12-02T01:57:47.926Z,2.00
2018-12-02T02:00:19.465Z,2.10
2018-12-02T02:02:47.937Z,2.00
2018-12-02T02:05:18.388Z,1.90
2018-12-02T02:07:47.140Z,1.80
2018-12-02T02:10:17.235Z,1.80
2018-12-02T02:12:47.817Z,1.90
2018-12-02T02:15:17.518Z,1.90
2018-12-02T02:17:46.380Z,1.80
2018-12-02T02:22:48.900Z,1.80
2018-12-02T02:28:15.105Z,1.90
2018-12-02T02:30:44.190Z,2.00
2018-12-02T02:33:12.833Z,2.00
2018-12-02T02:35:41.297Z,2.00
2018-12-02T02:38:09.501Z,2.00
2018-12-02T02:40:37.685Z,2.00
2018-12-02T02:43:06.034Z,1.90
2018-12-02T02:45:34.358Z,1.80
2018-12-02T02:48:03.185Z,1.80
2018-12-02T02:50:32.006Z,1.80
2018-12-02T02:53:01.944Z,1.80
2018-12-02T02:55:30.192Z,1.80
2018-12-02T02:57:58.427Z,1.80
2018-12-02T03:00:27.281Z,1.80
2018-12-02T03:02:55.574Z,1.80
2018-12-02T03:05:24.222Z,1.80
2018-12-02T03:07:52.442Z,1.80
2018-12-02T03:10:21.319Z,1.80
2018-12-02T16:30:28.247Z,3.00
2018-12-02T16:32:56.825Z,2.90
2018-12-02T16:35:25.596Z,2.90
2018-12-02T16:37:54.962Z,2.90
2018-12-02T16:40:24.849Z,3.00
2018-12-02T16:42:54.114Z,3.00
2018-12-02T16:45:22.801Z,3.00
2018-12-02T16:47:52.242Z,3.00
2018-12-02T16:50:31.597Z,3.00
2018-12-02T16:53:02.077Z,3.10
2018-12-02T16:55:31.782Z,3.10
2018-12-02T16:58:09.776Z,3.10
2018-12-02T17:00:46.601Z,3.10
2018-12-02T17:03:15.336Z,3.10
2018-12-02T17:05:43.952Z,3.20
2018-12-02T17:08:12.157Z,3.10
2018-12-02T17:10:40.389Z,3.20
2018-12-02T17:13:08.880Z,3.10
2018-12-02T17:15:37.103Z,3.10
2018-12-02T17:18:06.130Z,3.20
2018-12-02T17:20:34.674Z,3.10
2018-12-02T17:23:02.890Z,3.20
2018-12-02T17:25:31.086Z,3.20
2018-12-02T17:27:59.349Z,3.20
2018-12-02T17:30:32.164Z,3.20
2018-12-02T17:33:00.679Z,3.20
2018-12-02T17:35:29.577Z,3.30
2018-12-02T17:37:57.761Z,3.30
2018-12-02T17:40:25.958Z,3.30
2018-12-02T17:42:54.335Z,3.30
2018-12-02T17:45:22.492Z,3.30
2018-12-02T17:47:50.776Z,3.30
2018-12-02T17:50:19.681Z,3.40
2018-12-02T17:52:48.937Z,3.40
2018-12-02T17:55:17.198Z,3.40
2018-12-02T17:57:45.500Z,3.40
2018-12-02T18:00:19.962Z,3.40
2018-12-02T18:02:48.548Z,3.40
2018-12-02T18:05:19.341Z,3.40
2018-12-02T18:07:47.616Z,3.50
2018-12-02T18:10:16.409Z,3.50
2018-12-02T18:12:44.603Z,3.50
2018-12-02T18:15:13.888Z,3.50
2018-12-02T18:17:42.930Z,3.60
2018-12-02T18:20:16.458Z,3.60
2018-12-02T18:22:45.404Z,3.60
2018-12-02T18:25:15.523Z,3.60
2018-12-02T18:27:44.861Z,3.60
2018-12-02T18:30:19.218Z,3.70
2018-12-02T18:32:48.566Z,3.60
2018-12-02T18:36:02.238Z,3.70
2018-12-02T18:38:33.196Z,3.70
2018-12-02T18:41:11.641Z,3.70
2018-12-02T18:43:39.889Z,3.70
2018-12-02T18:46:08.457Z,3.70
2018-12-02T18:48:37.226Z,3.80
2018-12-02T18:51:06.398Z,3.80
2018-12-02T18:53:34.680Z,3.70
2018-12-02T18:56:02.888Z,3.70
2018-12-02T18:58:31.207Z,3.70
2018-12-02T19:00:59.430Z,3.70
2018-12-02T19:03:27.967Z,3.70
2018-12-02T19:05:56.198Z,3.70
2018-12-02T19:08:24.916Z,3.70
2018-12-02T19:10:55.531Z,3.70
2018-12-02T19:13:23.778Z,3.80
2018-12-02T19:15:52.660Z,3.80
2018-12-02T19:18:21.386Z,3.80
2018-12-02T19:20:52.005Z,3.80
2018-12-02T19:23:22.605Z,3.80
2018-12-02T19:25:50.840Z,3.90
2018-12-02T19:28:19.352Z,3.90
2018-12-02T19:30:47.576Z,3.90
2018-12-02T19:33:19.330Z,3.90
2018-12-02T19:35:48.143Z,4.00
2018-12-02T19:38:21.836Z,4.00
2018-12-02T19:43:25.463Z,4.00
2018-12-02T19:45:54.382Z,4.00
2018-12-02T19:48:22.620Z,4.10
2018-12-02T19:50:51.437Z,4.10
2018-12-02T19:53:19.653Z,4.10
2018-12-02T19:55:47.885Z,4.20
2018-12-02T19:58:16.182Z,4.20
2018-12-02T20:00:45.488Z,4.20
2018-12-02T20:03:15.000Z,4.20
2018-12-02T20:08:05.721Z,4.30
2018-12-02T20:10:34.011Z,4.20
2018-12-02T20:13:11.499Z,4.30
2018-12-02T20:15:46.295Z,4.30
2018-12-02T20:18:15.529Z,4.30
2018-12-02T20:20:51.561Z,4.30
2018-12-02T20:23:25.795Z,4.30
2018-12-02T20:25:55.690Z,4.30
2018-12-02T20:28:29.916Z,4.30
2018-12-02T20:30:58.606Z,4.30
2018-12-02T20:33:27.467Z,4.30
2018-12-02T20:35:56.542Z,4.30
2018-12-02T20:38:24.773Z,4.30
2018-12-02T20:40:52.993Z,4.30
2018-12-02T20:43:21.473Z,4.30
2018-12-02T20:45:49.748Z,4.30
2018-12-02T20:48:18.178Z,4.30
2018-12-02T20:50:46.755Z,4.40
2018-12-02T20:53:16.165Z,4.30
2018-12-02T20:55:43.482Z,4.40
2018-12-02T20:58:11.741Z,4.40
2018-12-02T21:00:39.945Z,4.40
2018-12-02T21:03:14.508Z,4.40
2018-12-02T21:06:16.009Z,4.40
2018-12-02T21:08:44.505Z,4.40
2018-12-02T21:11:13.103Z,4.40
2018-12-02T21:13:41.366Z,4.40
2018-12-02T21:16:09.561Z,4.40
2018-12-02T21:18:38.432Z,4.50
2018-12-02T21:21:07.005Z,4.50
2018-12-02T21:23:35.200Z,4.50
2018-12-02T21:26:04.267Z,4.50
2018-12-02T21:28:32.678Z,4.50
2018-12-02T21:31:00.889Z,4.40
2018-12-02T21:33:29.354Z,4.40
2018-12-02T21:35:57.812Z,4.50
2018-12-02T21:38:25.980Z,4.50
2018-12-02T21:40:54.209Z,4.50
2018-12-02T21:43:22.814Z,4.50
2018-12-02T21:45:51.065Z,4.50
2018-12-02T21:48:20.393Z,4.40
2018-12-02T21:50:53.143Z,4.30
2018-12-02T21:53:21.344Z,4.30
2018-12-02T21:55:50.570Z,4.30
2018-12-02T21:58:19.087Z,4.30
2018-12-02T22:00:52.943Z,4.30
2018-12-02T22:03:21.464Z,4.30
2018-12-02T22:05:49.991Z,4.40
2018-12-02T22:08:18.888Z,4.40
2018-12-02T22:10:47.261Z,4.30
2018-12-02T22:13:15.538Z,4.30
2018-12-02T22:15:43.789Z,4.30
2018-12-02T22:18:13.278Z,4.30
2018-12-02T22:20:41.565Z,4.30
2018-12-02T22:23:09.900Z,4.40
2018-12-02T22:25:38.117Z,4.40
2018-12-02T22:28:08.204Z,4.40
2018-12-02T22:30:37.215Z,4.50
2018-12-02T22:33:07.048Z,4.50
2018-12-02T22:35:36.060Z,4.50
2018-12-02T22:38:04.241Z,4.50
2018-12-02T22:40:32.483Z,4.50
2018-12-02T22:43:00.734Z,4.50
2018-12-02T22:45:29.391Z,4.50
2018-12-02T22:47:58.052Z,4.40
2018-12-02T22:50:28.541Z,4.50
2018-12-02T22:52:57.893Z,4.40
2018-12-02T22:55:26.216Z,4.40
2018-12-02T22:57:54.583Z,4.30
2018-12-02T23:00:34.595Z,4.30
2018-12-02T23:03:06.737Z,4.30
2018-12-02T23:05:35.240Z,4.30
2018-12-02T23:08:03.909Z,4.20
2018-12-02T23:13:51.785Z,4.20
2018-12-02T23:16:32.354Z,4.30
2018-12-02T23:21:31.123Z,4.30
2018-12-02T23:24:18.385Z,4.30
2018-12-02T23:27:05.635Z,4.40
2018-12-02T23:29:45.804Z,4.40
2018-12-02T23:32:26.041Z,4.30
2018-12-02T23:35:06.715Z,4.30
2018-12-02T23:40:27.462Z,4.40
2018-12-02T23:43:39.535Z,4.50
2018-12-02T23:46:26.769Z,4.50
2018-12-02T23:49:07.594Z,4.40
2018-12-02T23:51:48.029Z,4.40
2018-12-02T23:54:29.006Z,4.50
2018-12-02T23:57:09.847Z,4.50
2018-12-02T23:59:50.702Z,4.50
